Airfield :
LOGIN :

Register | Disclaimer

   EN    FR    IT 

 










Legend :    VFR   Marginal VFR   IFR   Intensive IFR   Very Intensive IFR
Visi :
Ceiling :
>= 8 km
>= 3000ft
5 to 8 km
1000 to 3000 ft
1500m to 5 km
500 to 1000 ft
800 to 1500m
200 to 500 ft
< 800m
< 200 ft
Symbols :   Thunderstorms  Fog  Heavy snow  Heavy precipitations  Wind > 20 kt
SIGMETs :     Misc.  Thunderstorms  Icing  Turbulence  Mountain Waves  Volcanic Ashes






- Airport Elevation : 370 ft


EBBE - Beauvechain AB

CURRENT METAR :
  • 060325Z AUTO 17010KT 9999 NCD 12/00 Q1016 BLU

EXPIRED METARs :
  • 060255Z AUTO 15008KT 9999 NCD 12/00 Q1016 BLU
  • 060225Z AUTO 16009KT 9999 NCD 12/00 Q1016 BLU
  • 060155Z AUTO 15008KT 9999 NCD 12/00 Q1016 BLU
  • 060125Z AUTO 15009KT 9999 NCD 12/00 Q1016 BLU
  • 060055Z AUTO 16009KT 9999 NCD 13/00 Q1016 BLU

Expired Forecast.



MET'MAP, your aeronautical weather chart ! - Copyright ORBIFLY December 2007 - Disclaimer

ORBIFLY MET'MAP TEAM :

Programming & Development : Alexandra Zaïnal
Concept & original design : Baudouin d'Aumeries
Assistance for programming : Marc-Olivier Méhu
Technical & hardware support : Manuel Goepfert

Contact : metmap@orbifly.com




SOURCES & CREDITS :

   NOAA